Mc Knightstown, Pennsylvania
Current Conditions -  °F | °C
As of 7:53 PM on Friday 28 Nov 2014 (Local Time) from KRYT Reporting Station
Few Clouds Few Clouds  
Wind Chill: 27°   Ceiling: Unl
Heat Index: 27°   Visibility: 10mi
Dew Point: 14°   Wind: 0mph
Humidity: 58%   Direction: NA
Pressure: 30.23"   Gusts: NA
Location:  39.8752°N, 77.3219°W
Report Text: KRYT 290053Z AUTO 00000KT 10SM FEW120 M03/M10 A3023 RMK AO2 SLP257 T10281100 $
Loading
Personal Weather Stations






























Interactive Weather Map New forecast layout! Learn more

10-Day Weather Forecast

Advertisements
Track Severe Weather on mobile